Time;durP1;ratioP1;P1;durP2;ratioP2;P2;SDS_P1;SDS_P2;PMS_P1;PMS_P2;Temp;Humidity;BMP_temperature;BMP_pressure;BME280_temperature;BME280_humidity;BME280_pressure;Samples;Min_cycle;Max_cycle;Signal;HPM_P1;HPM_P2
2022/04/18 00:00:29;;;;;;;15.98;12.02;;;9.90;61.20;;;;;;6065620;23;92392;-70
2022/04/18 00:02:58;;;;;;;14.93;11.43;;;9.80;61.80;;;;;;6015364;23;104335;-70
2022/04/18 00:05:25;;;;;;;14.30;10.77;;;9.80;61.80;;;;;;6037758;23;98339;-70
2022/04/18 00:07:52;;;;;;;17.15;12.15;;;9.80;62.20;;;;;;6040037;23;95381;-70
2022/04/18 00:10:19;;;;;;;14.82;11.10;;;9.80;61.80;;;;;;6066061;23;92519;-70
2022/04/18 00:12:46;;;;;;;15.38;11.82;;;9.80;62.30;;;;;;6040023;23;92873;-70
2022/04/18 00:15:13;;;;;;;15.90;11.23;;;9.70;62.10;;;;;;6065714;23;93196;-70
2022/04/18 00:17:41;;;;;;;15.77;11.50;;;9.70;62.90;;;;;;6065418;23;93056;-70
2022/04/18 00:20:09;;;;;;;16.23;12.20;;;9.70;63.30;;;;;;6039844;23;101915;-70
2022/04/18 00:22:37;;;;;;;17.17;11.93;;;9.60;63.60;;;;;;6039719;23;91791;-70
2022/04/18 00:25:04;;;;;;;15.30;11.50;;;9.60;63.50;;;;;;6039698;23;95681;-70
2022/04/18 00:27:31;;;;;;;15.93;11.15;;;9.60;63.80;;;;;;6015339;23;95480;-70
2022/04/18 00:29:58;;;;;;;16.02;12.27;;;9.60;64.00;;;;;;6014632;23;94833;-70
2022/04/18 00:32:25;;;;;;;16.63;12.25;;;9.50;64.60;;;;;;6065566;23;92445;-70
2022/04/18 00:34:53;;;;;;;16.38;11.65;;;9.50;64.10;;;;;;6040325;23;92990;-70
2022/04/18 00:37:20;;;;;;;17.20;12.07;;;9.50;64.50;;;;;;6065672;23;92989;-70
2022/04/18 00:39:47;;;;;;;17.40;11.95;;;9.50;64.80;;;;;;6015534;23;92478;-70
2022/04/18 00:42:14;;;;;;;16.73;11.80;;;9.40;65.20;;;;;;6040212;23;92427;-70
2022/04/18 00:44:42;;;;;;;19.17;12.27;;;9.40;65.20;;;;;;6065524;23;93089;-70
2022/04/18 00:47:09;;;;;;;16.50;11.93;;;9.30;65.70;;;;;;6039710;23;93017;-70
2022/04/18 00:49:36;;;;;;;18.48;11.88;;;9.40;65.90;;;;;;6039149;23;96803;-70
2022/04/18 00:52:05;;;;;;;14.00;11.55;;;9.40;65.90;;;;;;6039730;23;92938;-70
2022/04/18 00:54:33;;;;;;;18.88;12.73;;;9.30;66.50;;;;;;6037580;23;98256;-70
2022/04/18 00:57:01;;;;;;;16.95;11.95;;;9.30;66.40;;;;;;6039285;23;96467;-70
2022/04/18 00:59:32;;;;;;;15.38;10.73;;;9.30;66.70;;;;;;6015736;23;92395;-70
2022/04/18 01:01:59;;;;;;;15.10;12.00;;;9.20;67.00;;;;;;6039345;23;92499;-70
2022/04/18 01:04:26;;;;;;;19.08;12.02;;;9.20;67.20;;;;;;6015576;23;95758;-70
2022/04/18 01:06:53;;;;;;;17.70;12.55;;;9.20;67.00;;;;;;6039304;23;95534;-70
2022/04/18 01:09:20;;;;;;;16.52;11.60;;;9.20;67.30;;;;;;6039440;23;92483;-70
2022/04/18 01:11:49;;;;;;;15.85;11.80;;;9.10;67.30;;;;;;6039689;23;91831;-70
2022/04/18 01:14:25;;;;;;;18.90;11.75;;;9.10;67.70;;;;;;6065554;23;92950;-70
2022/04/18 01:17:18;;;;;;;14.35;10.70;;;9.10;67.70;;;;;;6040831;23;93842;-70
2022/04/18 01:20:14;;;;;;;14.00;10.70;;;9.10;68.20;;;;;;6034600;23;95088;-70
2022/04/18 01:23:00;;;;;;;13.13;10.50;;;9.00;68.40;;;;;;6065616;23;92447;-71
2022/04/18 01:31:15;;;;;;;15.75;11.77;;;9.00;68.60;;;;;;6040063;23;92703;-70
2022/04/18 01:33:42;;;;;;;17.40;11.90;;;9.00;69.00;;;;;;6015342;23;92567;-70
2022/04/18 01:36:09;;;;;;;17.13;12.25;;;8.90;68.90;;;;;;6039231;23;95892;-70
2022/04/18 01:38:36;;;;;;;15.98;12.00;;;8.90;69.20;;;;;;6039418;23;95624;-70
2022/04/18 01:41:03;;;;;;;15.57;11.38;;;8.90;69.10;;;;;;6040044;23;92995;-70
2022/04/18 01:43:30;;;;;;;16.48;11.10;;;8.90;69.00;;;;;;6015442;23;92545;-70
2022/04/18 01:45:58;;;;;;;16.58;11.52;;;8.90;69.30;;;;;;6037466;23;97449;-70
2022/04/18 01:48:27;;;;;;;16.20;11.55;;;8.80;69.20;;;;;;6038921;23;97652;-70
2022/04/18 01:50:54;;;;;;;19.42;12.13;;;8.80;69.80;;;;;;6039139;23;92522;-70
2022/04/18 01:53:22;;;;;;;18.13;11.77;;;8.80;69.20;;;;;;6039243;23;92493;-70
2022/04/18 01:55:50;;;;;;;15.85;11.50;;;8.80;69.50;;;;;;6038898;23;94695;-70
2022/04/18 01:58:17;;;;;;;14.10;11.13;;;8.80;69.20;;;;;;6038774;23;93945;-70
2022/04/18 02:00:44;;;;;;;14.68;10.75;;;8.80;69.80;;;;;;6039712;23;92438;-70
2022/04/18 02:03:11;;;;;;;15.20;11.43;;;8.70;70.00;;;;;;6040817;23;91674;-70
2022/04/18 02:05:41;;;;;;;14.73;11.32;;;8.70;70.00;;;;;;6039977;23;95787;-70
2022/04/18 02:08:09;;;;;;;14.95;11.00;;;8.70;70.30;;;;;;6040731;23;92914;-70
2022/04/18 02:10:36;;;;;;;17.60;10.32;;;8.70;70.10;;;;;;6038864;23;94797;-70
2022/04/18 02:13:04;;;;;;;15.18;12.10;;;8.70;70.40;;;;;;6040335;23;92491;-70
2022/04/18 02:15:32;;;;;;;14.55;10.80;;;8.70;70.30;;;;;;6016670;23;94275;-70
2022/04/18 02:18:02;;;;;;;16.45;11.25;;;8.70;70.20;;;;;;6040459;23;95223;-70
2022/04/18 02:20:29;;;;;;;14.88;10.43;;;8.70;70.10;;;;;;6016555;23;92396;-70
2022/04/18 02:22:56;;;;;;;14.70;11.63;;;8.70;70.50;;;;;;6040073;23;92487;-70
2022/04/18 02:25:24;;;;;;;14.15;10.73;;;8.70;70.40;;;;;;6040157;23;93422;-70
2022/04/18 02:27:55;;;;;;;19.90;11.23;;;8.60;70.20;;;;;;6016622;23;93891;-70
2022/04/18 02:30:22;;;;;;;16.00;11.95;;;8.60;70.80;;;;;;6040132;23;92483;-70
2022/04/18 02:32:50;;;;;;;16.15;11.25;;;8.60;71.00;;;;;;6016363;23;92795;-70
2022/04/18 02:35:20;;;;;;;14.98;11.88;;;8.60;71.70;;;;;;6014838;23;98110;-70
2022/04/18 02:37:50;;;;;;;15.48;11.35;;;8.50;71.10;;;;;;6039599;23;96505;-70
2022/04/18 02:40:22;;;;;;;17.05;11.60;;;8.50;71.10;;;;;;6040568;23;92427;-70
2022/04/18 02:42:51;;;;;;;15.82;11.77;;;8.50;71.40;;;;;;6016071;23;92478;-70
2022/04/18 02:45:21;;;;;;;16.60;11.80;;;8.40;71.50;;;;;;6016156;23;95639;-70
2022/04/18 02:48:14;;;;;;;12.30;9.20;;;8.50;71.90;;;;;;6032084;23;92881;-70
2022/04/18 02:50:45;;;;;;;14.55;10.90;;;8.40;71.90;;;;;;6017976;23;92752;-70
2022/04/18 02:53:12;;;;;;;12.57;9.50;;;8.40;71.50;;;;;;6041099;23;91673;-70
2022/04/18 02:55:59;;;;;;;15.70;10.77;;;8.40;71.90;;;;;;6065676;23;93055;-70
2022/04/18 02:58:26;;;;;;;15.05;10.80;;;8.30;71.70;;;;;;6039984;23;95012;-70
2022/04/18 03:00:55;;;;;;;13.70;10.95;;;8.30;72.00;;;;;;6038357;23;94902;-70
2022/04/18 03:03:22;;;;;;;13.70;11.07;;;8.30;72.10;;;;;;6016121;23;92429;-70
2022/04/18 03:05:49;;;;;;;18.17;12.00;;;8.30;72.60;;;;;;6039130;23;95451;-70
2022/04/18 03:08:17;;;;;;;14.80;10.65;;;8.30;72.70;;;;;;6039964;23;95259;-70
2022/04/18 03:13:33;;;;;;;14.68;11.57;;;8.30;72.70;;;;;;6066264;23;92480;-70
2022/04/18 03:16:05;;;;;;;14.85;11.55;;;8.20;72.80;;;;;;6039426;23;94068;-70
2022/04/18 03:18:33;;;;;;;15.38;10.43;;;8.20;72.80;;;;;;6016522;23;95290;-70
2022/04/18 03:21:00;;;;;;;13.45;10.77;;;8.10;73.10;;;;;;6039819;23;92413;-70
2022/04/18 03:23:27;;;;;;;16.77;10.93;;;8.10;73.80;;;;;;6039817;23;92460;-70
2022/04/18 03:26:13;;;;;;;14.77;10.57;;;8.10;73.80;;;;;;6064584;23;95067;-70
2022/04/18 03:28:52;;;;;;;15.10;10.93;;;8.10;74.10;;;;;;6018050;23;97783;-70
2022/04/18 03:31:19;;;;;;;14.50;11.15;;;8.10;73.90;;;;;;6040548;23;92415;-70
2022/04/18 03:33:46;;;;;;;14.65;11.05;;;8.00;74.00;;;;;;6016214;23;92739;-70
2022/04/18 03:41:46;;;;;;;15.80;11.00;;;8.00;74.20;;;;;;6040441;23;92502;-70
2022/04/18 03:44:14;;;;;;;13.27;10.52;;;7.90;74.40;;;;;;6040366;23;91731;-70
2022/04/18 03:46:41;;;;;;;15.52;10.70;;;7.90;74.50;;;;;;6039823;23;95554;-70
2022/04/18 03:49:08;;;;;;;13.30;10.35;;;7.90;74.40;;;;;;6015663;23;95592;-70
2022/04/18 03:51:38;;;;;;;12.35;10.00;;;7.90;74.10;;;;;;6015073;23;94756;-70
2022/04/18 03:54:07;;;;;;;14.93;10.52;;;7.90;74.40;;;;;;6039394;23;92562;-70
2022/04/18 03:56:36;;;;;;;15.73;10.95;;;7.90;74.70;;;;;;6039566;23;95052;-70
2022/04/18 03:59:09;;;;;;;11.68;9.63;;;7.90;74.50;;;;;;6065576;23;92704;-70
2022/04/18 04:01:56;;;;;;;16.75;11.27;;;7.80;74.40;;;;;;6065341;23;92414;-70
2022/04/18 04:04:25;;;;;;;15.68;11.95;;;7.80;74.80;;;;;;6039613;23;92510;-70
2022/04/18 04:06:53;;;;;;;13.85;10.43;;;7.80;75.10;;;;;;6039450;23;95126;-70
2022/04/18 04:09:21;;;;;;;14.63;10.73;;;7.80;74.90;;;;;;6039960;23;95014;-70
2022/04/18 04:11:48;;;;;;;12.73;10.30;;;7.80;75.00;;;;;;6015958;23;92369;-70
2022/04/18 04:14:15;;;;;;;15.00;11.15;;;7.80;74.90;;;;;;6065661;23;92421;-70
2022/04/18 04:16:42;;;;;;;17.52;10.82;;;7.70;74.80;;;;;;6038973;23;95769;-70
2022/04/18 04:19:09;;;;;;;15.90;11.05;;;7.70;74.90;;;;;;6015430;23;97716;-70
2022/04/18 04:21:36;;;;;;;15.35;10.77;;;7.70;75.00;;;;;;6039566;23;92391;-70
2022/04/18 04:24:05;;;;;;;15.27;10.68;;;7.70;75.70;;;;;;6039135;23;92458;-70
2022/04/18 04:26:40;;;;;;;17.58;11.90;;;7.70;75.60;;;;;;6017516;23;95730;-70
2022/04/18 04:29:11;;;;;;;12.85;9.88;;;7.70;75.80;;;;;;6039471;23;95279;-70
2022/04/18 04:32:01;;;;;;;14.70;11.00;;;7.60;75.70;;;;;;6065728;23;92336;-70
2022/04/18 04:34:30;;;;;;;14.98;11.07;;;7.60;76.00;;;;;;6016732;23;91852;-70
2022/04/18 04:37:15;;;;;;;14.00;9.93;;;7.60;75.90;;;;;;6039154;23;94222;-70
2022/04/18 04:39:44;;;;;;;15.98;10.70;;;7.60;75.90;;;;;;6040066;23;95198;-70
2022/04/18 04:42:12;;;;;;;14.15;10.60;;;7.60;76.00;;;;;;6014279;23;94828;-70
2022/04/18 04:44:41;;;;;;;13.30;9.88;;;7.70;76.50;;;;;;6039412;23;92558;-70
2022/04/18 04:47:11;;;;;;;13.50;10.52;;;7.70;76.50;;;;;;6066202;23;93140;-70
2022/04/18 04:49:39;;;;;;;14.02;9.75;;;7.70;76.50;;;;;;6039508;23;95098;-70
2022/04/18 04:52:24;;;;;;;13.55;9.52;;;7.70;76.50;;;;;;6020186;23;92539;-70
2022/04/18 04:54:53;;;;;;;13.80;10.25;;;7.70;76.70;;;;;;6040300;23;92447;-70
2022/04/18 04:57:42;;;;;;;14.13;10.13;;;7.80;76.50;;;;;;6024932;23;94101;-70
2022/04/18 05:00:28;;;;;;;13.60;9.63;;;7.80;76.00;;;;;;6065863;23;92463;-70
2022/04/18 05:03:18;;;;;;;13.00;10.25;;;7.90;76.20;;;;;;6057879;23;92339;-70
2022/04/18 05:05:45;;;;;;;14.38;10.52;;;7.90;76.10;;;;;;6039328;23;92370;-70
2022/04/18 05:08:32;;;;;;;13.23;9.73;;;8.00;76.00;;;;;;6063247;23;96427;-70
2022/04/18 05:11:02;;;;;;;13.52;9.93;;;8.10;75.30;;;;;;6039743;23;97609;-70
2022/04/18 05:13:40;;;;;;;14.25;10.60;;;8.20;75.20;;;;;;6040553;23;92423;-70
2022/04/18 05:16:08;;;;;;;13.80;10.00;;;8.20;75.00;;;;;;6039402;23;92501;-70
2022/04/18 05:18:51;;;;;;;13.65;10.13;;;8.20;75.10;;;;;;6039797;23;94511;-70
2022/04/18 05:21:18;;;;;;;15.48;10.43;;;8.30;74.80;;;;;;6039107;23;94558;-70
2022/04/18 05:23:48;;;;;;;14.25;10.32;;;8.30;75.10;;;;;;6015582;23;92597;-70
2022/04/18 05:26:15;;;;;;;13.43;10.52;;;8.40;75.10;;;;;;6039425;23;91646;-70
2022/04/18 05:28:45;;;;;;;13.65;10.10;;;8.80;75.10;;;;;;6039204;23;95389;-70
2022/04/18 05:31:33;;;;;;;11.98;9.48;;;9.40;72.90;;;;;;6038932;23;94957;-70
2022/04/18 05:34:03;;;;;;;13.48;9.98;;;10.30;70.10;;;;;;6038616;23;94850;-70
2022/04/18 05:36:39;;;;;;;13.95;11.30;;;10.90;68.80;;;;;;6039659;23;92481;-70
2022/04/18 05:39:11;;;;;;;14.95;11.30;;;11.50;66.80;;;;;;6038724;23;95230;-70
2022/04/18 05:41:43;;;;;;;14.57;10.82;;;11.90;64.20;;;;;;6065474;23;92749;-71
2022/04/18 05:44:14;;;;;;;13.02;10.98;;;12.20;63.50;;;;;;6038915;23;92581;-70
2022/04/18 05:46:51;;;;;;;13.20;10.25;;;12.30;63.10;;;;;;6039473;23;92444;-70
2022/04/18 05:49:18;;;;;;;14.32;10.95;;;12.30;62.40;;;;;;6038913;23;95407;-70
2022/04/18 05:51:46;;;;;;;17.50;11.40;;;12.40;62.30;;;;;;6039752;23;95900;-70
2022/04/18 05:54:14;;;;;;;14.80;11.73;;;12.30;62.50;;;;;;6038975;23;92910;-71
2022/04/18 05:56:53;;;;;;;13.35;10.93;;;12.10;62.70;;;;;;6039343;23;92857;-71
2022/04/18 05:59:40;;;;;;;13.38;11.13;;;12.10;62.90;;;;;;6062921;23;96950;-71
2022/04/18 06:02:15;;;;;;;14.55;10.70;;;12.40;62.10;;;;;;6039109;23;96401;-70
2022/04/18 06:05:01;;;;;;;11.52;10.05;;;12.70;61.10;;;;;;6019091;23;92908;-70
2022/04/18 06:07:54;;;;;;;15.40;11.52;;;13.00;60.40;;;;;;6039396;23;92418;-70
2022/04/18 06:10:42;;;;;;;13.10;11.35;;;13.20;59.80;;;;;;6065061;23;92594;-71
2022/04/18 06:13:29;;;;;;;12.60;11.00;;;13.10;60.80;;;;;;5999497;23;92581;-71
2022/04/18 06:15:58;;;;;;;12.55;10.63;;;12.90;61.00;;;;;;6039081;23;92726;-70
2022/04/18 06:18:26;;;;;;;13.98;11.07;;;12.90;61.60;;;;;;6039163;23;91776;-71
2022/04/18 06:20:57;;;;;;;14.20;11.18;;;13.20;61.30;;;;;;6038847;23;95299;-71
2022/04/18 06:23:24;;;;;;;12.73;10.68;;;13.70;60.00;;;;;;6014498;23;95768;-71
2022/04/18 06:26:11;;;;;;;13.30;10.77;;;13.90;58.90;;;;;;6063110;23;95136;-71
2022/04/18 06:28:39;;;;;;;16.90;10.70;;;14.10;59.10;;;;;;6038645;23;92530;-71
2022/04/18 06:31:06;;;;;;;12.75;10.98;;;14.20;58.10;;;;;;6038754;23;95748;-71
2022/04/18 06:33:38;;;;;;;12.20;10.68;;;14.40;58.00;;;;;;6016205;23;95350;-71
2022/04/18 06:36:07;;;;;;;13.13;11.05;;;14.40;58.10;;;;;;6064966;23;92440;-71
2022/04/18 06:38:42;;;;;;;12.65;9.95;;;14.30;58.10;;;;;;6038808;23;92470;-71
2022/04/18 06:41:19;;;;;;;10.95;9.82;;;14.50;58.00;;;;;;6038956;23;95008;-71
2022/04/18 06:43:56;;;;;;;11.40;9.25;;;14.50;56.80;;;;;;6039665;23;95552;-71
2022/04/18 06:46:36;;;;;;;11.77;9.63;;;14.70;57.00;;;;;;6039916;23;92479;-71
2022/04/18 06:49:07;;;;;;;12.05;10.27;;;14.60;57.10;;;;;;6041072;23;92499;-71
2022/04/18 06:51:52;;;;;;;9.35;8.55;;;14.60;56.40;;;;;;6042901;23;95070;-71
2022/04/18 06:54:49;;;;;;;9.52;8.55;;;14.60;55.90;;;;;;6066306;23;96253;-71
2022/04/18 06:57:16;;;;;;;9.70;8.77;;;14.80;55.00;;;;;;6064988;23;92882;-71
2022/04/18 06:59:55;;;;;;;10.20;8.80;;;15.10;54.00;;;;;;6041056;23;92468;-71
2022/04/18 07:02:24;;;;;;;10.77;9.70;;;15.30;54.30;;;;;;6016711;23;95643;-71
2022/04/18 07:04:53;;;;;;;9.63;8.63;;;15.60;53.00;;;;;;6040348;23;95044;-71
2022/04/18 07:07:21;;;;;;;10.52;8.95;;;15.90;52.80;;;;;;6040546;23;92333;-71
2022/04/18 07:09:48;;;;;;;9.10;8.20;;;16.20;51.30;;;;;;6041021;23;91715;-71
2022/04/18 07:12:21;;;;;;;11.88;10.77;;;16.30;50.60;;;;;;6016753;23;95933;-71
2022/04/18 07:14:49;;;;;;;9.68;8.63;;;16.30;50.30;;;;;;6039691;23;94944;-71
2022/04/18 07:17:16;;;;;;;10.68;9.73;;;16.40;50.30;;;;;;6065100;23;94822;-71
2022/04/18 07:19:45;;;;;;;9.65;8.80;;;16.70;49.80;;;;;;6040693;23;92493;-71
2022/04/18 07:22:14;;;;;;;10.25;9.25;;;17.20;48.20;;;;;;6040432;23;95533;-71
2022/04/18 07:24:42;;;;;;;10.85;9.93;;;17.50;47.60;;;;;;6040444;23;94417;-71
2022/04/18 07:27:10;;;;;;;10.25;9.25;;;17.80;47.00;;;;;;6040819;23;92331;-71
2022/04/18 07:29:47;;;;;;;10.75;9.77;;;17.80;45.30;;;;;;6040879;23;92431;-71
2022/04/18 07:32:14;;;;;;;11.93;10.85;;;17.90;46.30;;;;;;6040504;23;95258;-71
2022/04/18 07:34:42;;;;;;;9.95;9.13;;;17.90;46.50;;;;;;6016219;23;95262;-71
2022/04/18 07:37:18;;;;;;;10.52;9.43;;;18.20;45.10;;;;;;6040619;23;92450;-71
2022/04/18 07:39:45;;;;;;;10.45;9.45;;;18.20;44.50;;;;;;6040749;23;92420;-71
2022/04/18 07:42:12;;;;;;;11.20;9.95;;;18.20;44.90;;;;;;6015007;23;97977;-71
2022/04/18 07:44:39;;;;;;;11.25;10.25;;;17.90;44.40;;;;;;6040022;23;97986;-71
2022/04/18 07:47:29;;;;;;;9.02;8.23;;;17.90;45.60;;;;;;6039887;23;92429;-71
2022/04/18 07:49:56;;;;;;;9.68;8.77;;;17.90;44.50;;;;;;6040760;23;92465;-71
2022/04/18 07:52:40;;;;;;;12.38;11.23;;;17.90;45.60;;;;;;6017768;23;94292;-71
2022/04/18 07:55:09;;;;;;;13.32;12.23;;;18.10;44.40;;;;;;6040037;23;94575;-71
2022/04/18 07:57:51;;;;;;;16.13;15.00;;;18.20;44.40;;;;;;6039399;23;92388;-71
2022/04/18 08:00:19;;;;;;;18.00;16.67;;;18.70;42.70;;;;;;6016549;23;91744;-71
2022/04/18 08:02:53;;;;;;;17.35;16.30;;;19.30;41.50;;;;;;6039531;23;94187;-71
2022/04/18 08:05:40;;;;;;;19.48;18.23;;;20.00;40.80;;;;;;6028464;23;92753;-71
2022/04/18 08:08:10;;;;;;;16.90;15.80;;;20.70;38.10;;;;;;6039428;23;94739;-72
2022/04/18 08:10:37;;;;;;;19.42;18.02;;;21.50;37.00;;;;;;6065604;23;92339;-71
2022/04/18 08:13:07;;;;;;;27.45;26.13;;;22.20;35.20;;;;;;6016303;23;95337;-72
2022/04/18 08:15:37;;;;;;;18.48;17.35;;;22.60;34.00;;;;;;6040498;23;92702;-72
2022/04/18 08:18:19;;;;;;;43.65;41.78;;;23.30;33.80;;;;;;6018936;23;92543;-72
2022/04/18 08:20:54;;;;;;;50.90;48.58;;;23.90;33.80;;;;;;6040036;23;92396;-72
2022/04/18 08:23:21;;;;;;;35.22;33.55;;;24.20;31.20;;;;;;6040277;23;93161;-72
2022/04/18 08:26:12;;;;;;;45.67;43.30;;;24.50;30.90;;;;;;5999684;23;95279;-72
2022/04/18 08:28:52;;;;;;;72.38;69.05;;;24.80;30.80;;;;;;6039326;23;92440;-72
2022/04/18 08:31:22;;;;;;;51.65;49.17;;;24.70;31.10;;;;;;6016016;23;92487;-72
2022/04/18 08:33:58;;;;;;;26.77;25.38;;;25.10;30.80;;;;;;6038429;23;97912;-72
2022/04/18 08:36:26;;;;;;;40.63;38.88;;;25.20;29.20;;;;;;6015342;23;97536;-72
2022/04/18 08:38:55;;;;;;;28.08;26.67;;;25.40;29.90;;;;;;6015952;23;92484;-72
2022/04/18 08:41:34;;;;;;;88.78;85.00;;;25.70;29.50;;;;;;6040932;23;92290;-72
2022/04/18 08:44:03;;;;;;;42.22;40.45;;;25.70;29.00;;;;;;6039274;23;95027;-72
2022/04/18 08:46:32;;;;;;;7.03;6.32;;;25.30;29.40;;;;;;6039291;23;95583;-72
2022/04/18 08:54:34;;;;;;;9.20;8.32;;;24.00;30.00;;;;;;6039818;23;95268;-72
2022/04/18 08:57:01;;;;;;;8.35;7.65;;;23.30;31.50;;;;;;6016238;23;95417;-72
2022/04/18 08:59:28;;;;;;;7.40;6.70;;;22.90;31.60;;;;;;6039063;23;94781;-72
2022/04/18 09:01:55;;;;;;;7.90;7.13;;;22.50;32.80;;;;;;6040292;23;92887;-72
2022/04/18 09:04:43;;;;;;;9.55;8.55;;;21.90;32.90;;;;;;6043870;23;92963;-71
2022/04/18 09:07:12;;;;;;;9.32;6.82;;;21.30;34.30;;;;;;6039988;23;95340;-71
2022/04/18 09:09:48;;;;;;;7.13;6.13;;;20.70;34.50;;;;;;6040193;23;92453;-71
2022/04/18 09:12:22;;;;;;;8.13;6.68;;;20.40;35.40;;;;;;6064802;23;92332;-71
2022/04/18 09:15:30;;;;;;;11.17;7.70;;;20.20;37.70;;;;;;6034941;23;94002;-71
2022/04/18 09:18:10;;;;;;;6.38;5.68;;;19.80;37.30;;;;;;6040556;23;95350;-71
2022/04/18 09:20:56;;;;;;;8.02;6.53;;;19.80;38.60;;;;;;6017156;23;92420;-71
2022/04/18 09:23:35;;;;;;;7.13;6.47;;;19.60;39.10;;;;;;6040090;23;92381;-71
2022/04/18 09:26:25;;;;;;;7.90;7.20;;;19.40;38.00;;;;;;6059869;23;95391;-71
2022/04/18 09:29:03;;;;;;;7.78;6.53;;;19.10;39.30;;;;;;6039429;23;97171;-71
2022/04/18 09:31:39;;;;;;;8.77;7.97;;;19.00;38.60;;;;;;6040445;23;92492;-71
2022/04/18 09:34:19;;;;;;;6.60;6.00;;;18.80;39.00;;;;;;6040305;23;92475;-71
2022/04/18 09:36:46;;;;;;;7.30;6.60;;;18.70;40.20;;;;;;6063833;23;94979;-71
2022/04/18 09:39:23;;;;;;;7.55;6.85;;;18.60;41.50;;;;;;6040332;23;92855;-71
2022/04/18 09:42:14;;;;;;;7.05;6.32;;;18.60;40.70;;;;;;6040246;23;92496;-71
2022/04/18 09:45:08;;;;;;;5.97;5.40;;;18.50;42.80;;;;;;6064733;23;93078;-71
2022/04/18 09:47:37;;;;;;;7.63;6.93;;;18.50;42.20;;;;;;6039441;23;95127;-71
2022/04/18 09:53:22;;;;;;;7.35;6.63;;;18.50;40.20;;;;;;6038471;23;94807;-71
2022/04/18 09:55:51;;;;;;;8.05;6.38;;;18.50;42.10;;;;;;6065766;23;92472;-71
2022/04/18 09:58:18;;;;;;;6.88;6.22;;;18.60;41.50;;;;;;6015744;23;95623;-71
2022/04/18 10:01:06;;;;;;;7.85;7.13;;;18.60;41.50;;;;;;6039809;23;94379;-71
2022/04/18 10:03:35;;;;;;;6.93;5.57;;;18.60;40.00;;;;;;6040060;23;92781;-71
2022/04/18 10:06:04;;;;;;;7.40;6.70;;;18.60;41.10;;;;;;6065974;23;92435;-71
2022/04/18 10:08:32;;;;;;;8.05;6.63;;;18.60;40.70;;;;;;6065682;23;93163;-71
2022/04/18 10:11:00;;;;;;;9.45;7.45;;;18.70;41.80;;;;;;6039834;23;106731;-71
2022/04/18 10:13:29;;;;;;;9.30;8.50;;;18.70;41.10;;;;;;6039927;23;92824;-71
2022/04/18 10:15:58;;;;;;;6.63;5.95;;;18.70;40.10;;;;;;6065522;23;92417;-71
2022/04/18 10:18:25;;;;;;;6.03;5.45;;;18.70;41.10;;;;;;6064046;23;95402;-71
2022/04/18 10:21:07;;;;;;;7.95;5.90;;;18.60;39.70;;;;;;6039430;23;100343;-71
2022/04/18 10:24:01;;;;;;;7.75;5.57;;;18.70;39.80;;;;;;6041452;23;92407;-71
2022/04/18 10:26:53;;;;;;;6.25;5.65;;;18.70;40.40;;;;;;6067108;23;92482;-71
2022/04/18 10:29:27;;;;;;;7.28;6.57;;;18.80;41.70;;;;;;6066399;23;93114;-71
2022/04/18 10:32:00;;;;;;;6.50;5.85;;;18.90;40.70;;;;;;6066512;23;92989;-71
2022/04/18 10:34:31;;;;;;;8.70;7.05;;;18.90;39.20;;;;;;6067362;23;92367;-71
2022/04/18 10:37:03;;;;;;;6.28;5.68;;;18.90;38.80;;;;;;6067214;23;91554;-71
2022/04/18 10:39:35;;;;;;;5.68;4.63;;;18.90;38.60;;;;;;6066905;23;93097;-71
2022/04/18 10:42:21;;;;;;;7.15;5.63;;;19.00;36.90;;;;;;6066474;23;92871;-71
2022/04/18 10:45:04;;;;;;;6.95;6.35;;;19.10;38.20;;;;;;6015247;23;94927;-71
2022/04/18 10:47:56;;;;;;;5.25;4.75;;;19.20;34.90;;;;;;6067047;23;92511;-71
2022/04/18 10:50:57;;;;;;;6.38;5.72;;;19.10;34.00;;;;;;6041177;23;93222;-71
2022/04/18 10:53:35;;;;;;;5.75;5.25;;;19.20;36.30;;;;;;6059693;23;93034;-71
2022/04/18 10:56:02;;;;;;;6.15;4.65;;;19.30;34.20;;;;;;6066606;23;92316;-71
2022/04/18 10:58:31;;;;;;;5.22;4.68;;;19.30;34.50;;;;;;6065176;23;92412;-71
2022/04/18 11:01:00;;;;;;;5.72;5.13;;;19.40;35.70;;;;;;6066520;23;92524;-71
2022/04/18 11:03:54;;;;;;;6.05;5.45;;;19.40;36.40;;;;;;6067120;23;92999;-71
2022/04/18 11:06:24;;;;;;;6.90;5.25;;;19.50;33.00;;;;;;6041192;23;92436;-71
2022/04/18 11:09:06;;;;;;;9.20;5.75;;;19.40;35.40;;;;;;6066537;23;92412;-71
2022/04/18 11:11:35;;;;;;;6.55;5.40;;;19.60;36.60;;;;;;6065214;23;95689;-71
2022/04/18 11:14:18;;;;;;;5.93;5.43;;;19.60;36.00;;;;;;6065768;23;95301;-71
2022/04/18 11:16:45;;;;;;;5.77;5.37;;;19.80;35.60;;;;;;6066935;23;92666;-71
2022/04/18 11:19:15;;;;;;;6.10;5.05;;;19.80;35.60;;;;;;6064561;23;104930;-71
2022/04/18 11:22:01;;;;;;;5.30;4.80;;;19.90;34.50;;;;;;6066410;23;93275;-71
2022/04/18 11:24:37;;;;;;;4.97;4.57;;;20.10;35.40;;;;;;6040759;23;93795;-71
2022/04/18 11:27:11;;;;;;;5.32;4.80;;;20.20;32.90;;;;;;6066421;23;92355;-71
2022/04/18 11:29:41;;;;;;;4.80;4.40;;;20.20;32.30;;;;;;6066892;23;91627;-71
2022/04/18 11:32:08;;;;;;;6.30;5.70;;;20.10;33.00;;;;;;6066100;23;93234;-71
2022/04/18 11:34:37;;;;;;;5.78;5.28;;;20.10;32.80;;;;;;6040345;23;95607;-71
2022/04/18 11:37:08;;;;;;;6.25;5.75;;;20.10;33.80;;;;;;6064968;23;94722;-71
2022/04/18 11:39:49;;;;;;;7.28;5.80;;;20.10;33.90;;;;;;6066664;23;92329;-71
2022/04/18 11:42:18;;;;;;;6.30;5.55;;;20.30;33.30;;;;;;6066717;23;93156;-71
2022/04/18 11:44:46;;;;;;;5.95;5.38;;;20.30;32.40;;;;;;6040099;23;95380;-71
2022/04/18 11:47:19;;;;;;;5.82;5.32;;;20.20;33.90;;;;;;6066386;23;92333;-71
2022/04/18 11:49:46;;;;;;;5.50;5.00;;;20.30;34.20;;;;;;6066649;23;92301;-71
2022/04/18 11:52:20;;;;;;;7.32;6.72;;;20.40;34.20;;;;;;6066177;23;92909;-71
2022/04/18 11:55:03;;;;;;;5.78;5.28;;;20.50;32.40;;;;;;6040743;23;95441;-71
2022/04/18 11:57:33;;;;;;;5.55;5.05;;;20.50;33.60;;;;;;6066674;23;92406;-71
2022/04/18 12:00:00;;;;;;;4.95;4.55;;;20.60;33.40;;;;;;6039688;23;94387;-71
2022/04/18 12:08:13;;;;;;;5.78;4.90;;;20.70;33.00;;;;;;6066573;23;92309;-71
2022/04/18 12:10:42;;;;;;;6.05;5.55;;;20.70;33.20;;;;;;6016474;23;92425;-71
2022/04/18 12:13:11;;;;;;;5.78;5.18;;;20.60;30.00;;;;;;6040949;23;93241;-71
2022/04/18 12:15:40;;;;;;;5.75;5.25;;;20.60;31.60;;;;;;6040816;23;92857;-70
2022/04/18 12:18:07;;;;;;;6.82;6.22;;;20.70;33.00;;;;;;6015954;23;92509;-71
2022/04/18 12:20:35;;;;;;;5.80;5.30;;;20.70;32.00;;;;;;6067161;23;91780;-71
2022/04/18 12:23:02;;;;;;;4.93;4.53;;;20.70;30.70;;;;;;6065430;23;104223;-71
2022/04/18 12:25:31;;;;;;;4.72;4.22;;;20.80;32.10;;;;;;6040016;23;95839;-71
2022/04/18 12:28:03;;;;;;;4.85;4.43;;;20.80;32.20;;;;;;6039012;23;94887;-71
2022/04/18 12:30:30;;;;;;;5.97;5.38;;;20.90;30.40;;;;;;6066728;23;92761;-71
2022/04/18 12:33:21;;;;;;;6.72;6.13;;;20.90;32.00;;;;;;6040198;23;93276;-71
2022/04/18 12:35:53;;;;;;;4.90;4.50;;;21.10;31.80;;;;;;6066240;23;92725;-71
2022/04/18 12:38:34;;;;;;;4.63;4.22;;;20.90;28.90;;;;;;6016337;23;92433;-71
2022/04/18 12:41:01;;;;;;;4.80;4.25;;;21.00;30.20;;;;;;6066179;23;92402;-71
2022/04/18 12:43:30;;;;;;;5.95;5.38;;;21.00;29.40;;;;;;6040223;23;93144;-71
2022/04/18 12:46:00;;;;;;;5.40;4.90;;;21.10;28.60;;;;;;6066264;23;93046;-71
2022/04/18 12:48:32;;;;;;;4.78;4.38;;;21.10;28.30;;;;;;6066173;23;92391;-71
2022/04/18 12:51:01;;;;;;;4.68;4.28;;;21.20;30.00;;;;;;6039923;23;92534;-71
2022/04/18 12:53:48;;;;;;;4.35;3.72;;;21.20;28.90;;;;;;6064585;23;94817;-71
2022/04/18 12:56:20;;;;;;;4.20;3.78;;;21.40;30.40;;;;;;6039165;23;97765;-71
2022/04/18 12:58:53;;;;;;;4.70;4.20;;;21.30;27.50;;;;;;6065689;23;92396;-71
2022/04/18 13:01:23;;;;;;;5.73;5.33;;;21.30;29.00;;;;;;6065877;23;92419;-71
2022/04/18 13:03:51;;;;;;;5.28;4.78;;;21.30;28.20;;;;;;6065817;23;93211;-71
2022/04/18 13:06:29;;;;;;;22.40;14.23;;;21.20;28.30;;;;;;6015608;23;95721;-71
2022/04/18 13:09:05;;;;;;;5.65;5.15;;;21.20;30.40;;;;;;6039680;23;93149;-71
2022/04/18 13:11:45;;;;;;;39.17;30.65;;;21.30;29.60;;;;;;6066824;23;91665;-71
2022/04/18 13:14:13;;;;;;;10.30;9.23;;;21.40;30.10;;;;;;6064990;23;93275;-71
2022/04/18 13:16:45;;;;;;;6.60;6.03;;;21.30;30.40;;;;;;6039174;23;109312;-71
2022/04/18 13:19:14;;;;;;;5.32;4.88;;;21.30;30.00;;;;;;6064484;23;94758;-71
2022/04/18 13:21:42;;;;;;;6.03;5.15;;;21.40;31.00;;;;;;6040603;23;93315;-71
2022/04/18 13:24:10;;;;;;;6.80;6.10;;;21.40;30.00;;;;;;6065761;23;92477;-71
2022/04/18 13:26:37;;;;;;;7.53;6.93;;;21.40;30.00;;;;;;6065906;23;92869;-71
2022/04/18 13:29:05;;;;;;;5.80;5.20;;;21.40;30.50;;;;;;6065780;23;92412;-71
2022/04/18 13:31:32;;;;;;;5.70;5.18;;;21.40;29.80;;;;;;6066047;23;92413;-71
2022/04/18 13:33:59;;;;;;;5.15;4.70;;;21.50;29.60;;;;;;6065918;23;93108;-71